Time;durP1;ratioP1;P1;durP2;ratioP2;P2;SDS_P1;SDS_P2;PMS_P1;PMS_P2;Temp;Humidity;BMP_temperature;BMP_pressure;BME280_temperature;BME280_humidity;BME280_pressure;Samples;Min_cycle;Max_cycle;Signal;HPM_P1;HPM_P2
2022/04/04 00:01:40;;;;;;;7.75;4.97;;;2.10;99.90;;;;;;4998480;28;20037;-79
2022/04/04 00:04:11;;;;;;;7.70;5.10;;;2.10;99.90;;;;;;5001237;28;20088;-79
2022/04/04 00:07:02;;;;;;;7.05;4.72;;;2.10;99.90;;;;;;4986392;28;20042;-79
2022/04/04 00:09:31;;;;;;;8.25;5.47;;;2.00;99.90;;;;;;4986723;28;20061;-79
2022/04/04 00:12:02;;;;;;;8.07;4.82;;;2.00;99.90;;;;;;5005764;28;20041;-79
2022/04/04 00:14:40;;;;;;;8.30;4.60;;;2.00;99.90;;;;;;5003625;28;20057;-79
2022/04/04 00:17:21;;;;;;;6.65;4.53;;;1.90;99.90;;;;;;5002750;28;20054;-79
2022/04/04 00:19:56;;;;;;;9.75;5.43;;;1.90;99.90;;;;;;5010913;28;20115;-79
2022/04/04 00:22:32;;;;;;;7.80;5.20;;;1.90;99.90;;;;;;4991068;28;20136;-79
2022/04/04 00:25:00;;;;;;;6.32;4.85;;;1.90;99.90;;;;;;4966964;28;20125;-78
2022/04/04 00:27:48;;;;;;;10.52;5.80;;;1.90;99.90;;;;;;4997471;28;20076;-79
2022/04/04 00:30:20;;;;;;;8.55;5.97;;;2.00;99.90;;;;;;5002943;28;20037;-79
2022/04/04 00:32:52;;;;;;;8.93;5.72;;;2.00;99.90;;;;;;5002333;28;20044;-79
2022/04/04 00:35:29;;;;;;;7.57;5.35;;;2.10;99.90;;;;;;5003187;28;20098;-79
2022/04/04 00:38:14;;;;;;;10.15;5.82;;;2.20;99.90;;;;;;4982130;28;20092;-79
2022/04/04 00:40:43;;;;;;;9.65;6.05;;;2.30;99.90;;;;;;4990247;28;20042;-79
2022/04/04 00:43:12;;;;;;;11.88;6.80;;;2.40;99.90;;;;;;5002118;28;20129;-79
2022/04/04 00:45:45;;;;;;;8.95;6.35;;;2.50;99.90;;;;;;5000877;28;20087;-79
2022/04/04 00:48:16;;;;;;;11.55;7.90;;;2.50;99.90;;;;;;5002017;28;20068;-79
2022/04/04 00:50:50;;;;;;;15.40;8.27;;;2.60;99.90;;;;;;4988694;28;20496;-80
2022/04/04 00:53:22;;;;;;;12.65;8.60;;;2.70;99.90;;;;;;4983196;28;20499;-79
2022/04/04 00:55:57;;;;;;;11.95;9.80;;;2.70;99.90;;;;;;4983188;28;20603;-80
2022/04/04 00:58:47;;;;;;;13.05;10.05;;;2.80;99.90;;;;;;4982757;28;20077;-80
2022/04/04 01:01:23;;;;;;;13.65;11.13;;;2.90;99.90;;;;;;4982649;28;20092;-79
2022/04/04 01:03:50;;;;;;;13.90;11.88;;;2.80;99.90;;;;;;4987159;28;20030;-79
2022/04/04 01:06:34;;;;;;;13.27;11.73;;;2.80;99.90;;;;;;5002562;28;20555;-79
2022/04/04 01:09:18;;;;;;;16.10;12.75;;;3.00;99.90;;;;;;5002349;28;20072;-78
2022/04/04 01:12:12;;;;;;;14.25;11.90;;;2.90;99.90;;;;;;4991395;28;20181;-79
2022/04/04 01:15:10;;;;;;;14.57;10.77;;;3.00;99.90;;;;;;5000475;28;20140;-79
2022/04/04 01:17:53;;;;;;;;;;;3.10;99.90;;;;;;4998030;28;20437;-79
2022/04/04 01:20:25;;;;;;;15.27;11.18;;;3.00;99.90;;;;;;5000163;28;19971;-79
2022/04/04 01:22:59;;;;;;;13.80;10.75;;;3.10;99.90;;;;;;5001762;28;20041;-79
2022/04/04 01:25:36;;;;;;;13.35;10.60;;;3.20;99.90;;;;;;5002177;28;20041;-79
2022/04/04 01:28:19;;;;;;;14.75;10.80;;;3.10;99.90;;;;;;5001052;28;20052;-79
2022/04/04 01:30:54;;;;;;;13.50;10.48;;;3.20;99.90;;;;;;5004025;28;20041;-79
2022/04/04 01:33:58;;;;;;;16.48;10.68;;;3.20;99.90;;;;;;4993457;28;20045;-79
2022/04/04 01:36:34;;;;;;;13.82;9.63;;;3.20;99.90;;;;;;4985535;28;20095;-79
2022/04/04 01:39:03;;;;;;;12.25;9.63;;;3.20;99.90;;;;;;5000934;28;20095;-81
2022/04/04 01:41:38;;;;;;;14.18;10.55;;;3.20;99.90;;;;;;4996471;28;20049;-78
2022/04/04 01:44:09;;;;;;;12.63;9.85;;;3.20;99.90;;;;;;4987013;28;20064;-79
2022/04/04 01:46:38;;;;;;;11.93;10.00;;;3.20;99.90;;;;;;4984769;28;20072;-79
2022/04/04 01:49:18;;;;;;;11.48;9.68;;;3.20;99.90;;;;;;4985202;28;20057;-78
2022/04/04 01:52:00;;;;;;;12.48;10.13;;;3.30;99.90;;;;;;4984756;28;20046;-78
2022/04/04 01:55:18;;;;;;;14.90;10.60;;;3.20;99.90;;;;;;4983717;28;20034;-78
2022/04/04 01:57:50;;;;;;;15.25;11.63;;;3.20;99.90;;;;;;4994038;28;20087;-79
2022/04/04 02:00:27;;;;;;;14.05;10.95;;;3.20;99.90;;;;;;5000861;28;20053;-78
2022/04/04 02:02:56;;;;;;;17.95;12.30;;;3.10;99.90;;;;;;5018175;28;20093;-79
2022/04/04 02:05:28;;;;;;;15.68;11.68;;;3.20;99.90;;;;;;4989008;28;20044;-79
2022/04/04 02:08:12;;;;;;;21.67;13.02;;;3.30;99.90;;;;;;4995070;28;20527;-78
2022/04/04 02:10:51;;;;;;;21.63;13.00;;;3.20;99.90;;;;;;4983822;28;20044;-78
2022/04/04 02:13:33;;;;;;;17.15;12.73;;;3.20;99.90;;;;;;5000769;28;20123;-78
2022/04/04 02:16:01;;;;;;;17.75;12.52;;;3.20;99.90;;;;;;5001892;28;20183;-79
2022/04/04 02:18:46;;;;;;;19.02;11.73;;;3.20;99.90;;;;;;5002512;28;20134;-79
2022/04/04 02:21:21;;;;;;;18.48;13.15;;;3.40;99.90;;;;;;5001084;28;20049;-78
2022/04/04 02:23:53;;;;;;;16.35;12.25;;;3.30;99.90;;;;;;4983171;28;20400;-77
2022/04/04 02:26:41;;;;;;;16.85;11.82;;;3.50;99.90;;;;;;4990664;28;20046;-78
2022/04/04 02:29:25;;;;;;;18.90;12.43;;;3.40;99.90;;;;;;4998101;28;20377;-78
2022/04/04 02:31:54;;;;;;;17.27;12.50;;;3.50;99.90;;;;;;5012568;28;20500;-78
2022/04/04 02:34:32;;;;;;;17.30;12.45;;;3.50;99.90;;;;;;4999490;28;20500;-78
2022/04/04 02:37:10;;;;;;;17.20;12.52;;;3.50;99.90;;;;;;4982431;28;20523;-78
2022/04/04 02:39:36;;;;;;;18.10;12.13;;;3.50;99.90;;;;;;4977505;28;20440;-78
2022/04/04 02:42:24;;;;;;;17.58;12.18;;;3.60;99.90;;;;;;4978438;28;20042;-78
2022/04/04 02:44:58;;;;;;;20.42;13.18;;;3.60;99.90;;;;;;4994843;28;20050;-78
2022/04/04 02:47:30;;;;;;;20.15;11.98;;;3.50;99.90;;;;;;4978368;28;20111;-78
2022/04/04 02:49:59;;;;;;;19.65;12.77;;;3.70;99.90;;;;;;4984474;28;20068;-78
2022/04/04 02:52:28;;;;;;;19.23;12.68;;;3.70;99.90;;;;;;4998019;28;20045;-78
2022/04/04 02:58:10;;;;;;;16.85;12.50;;;3.80;99.90;;;;;;5003701;28;20054;-78
2022/04/04 03:00:46;;;;;;;16.75;12.13;;;3.80;99.90;;;;;;4997384;28;20041;-78
2022/04/04 03:03:15;;;;;;;17.33;12.80;;;3.90;99.90;;;;;;4997137;28;20103;-77
2022/04/04 03:05:46;;;;;;;19.67;13.10;;;3.90;99.90;;;;;;4996405;28;20037;-78
2022/04/04 03:08:21;;;;;;;18.20;12.80;;;4.00;99.90;;;;;;4998029;28;20041;-78
2022/04/04 03:10:55;;;;;;;16.15;12.65;;;4.00;99.90;;;;;;4998314;28;20055;-78
2022/04/04 03:13:29;;;;;;;15.95;12.07;;;4.00;99.90;;;;;;4979842;28;20046;-78
2022/04/04 03:16:04;;;;;;;15.05;12.18;;;4.00;99.90;;;;;;4992312;28;20059;-79
2022/04/04 03:18:54;;;;;;;16.08;11.98;;;4.10;99.90;;;;;;4989753;28;20054;-78
2022/04/04 03:21:22;;;;;;;20.63;12.77;;;4.10;99.90;;;;;;5013699;28;20077;-78
2022/04/04 03:23:59;;;;;;;19.63;12.88;;;4.10;99.90;;;;;;4997174;28;20219;-78
2022/04/04 03:26:25;;;;;;;18.42;12.15;;;4.20;99.90;;;;;;4997014;28;20038;-78
2022/04/04 03:29:07;;;;;;;16.35;11.68;;;4.20;99.90;;;;;;4993861;28;20050;-78
2022/04/04 03:31:38;;;;;;;19.13;12.07;;;4.20;99.90;;;;;;4997742;28;20202;-78
2022/04/04 03:34:11;;;;;;;16.35;12.02;;;4.20;99.90;;;;;;4976882;28;20049;-78
2022/04/04 03:36:55;;;;;;;15.27;11.60;;;4.20;99.90;;;;;;4977892;28;20488;-78
2022/04/04 03:39:35;;;;;;;15.10;11.82;;;4.20;99.90;;;;;;4982423;28;20408;-78
2022/04/04 03:42:10;;;;;;;15.82;11.98;;;4.30;99.90;;;;;;4983529;28;20038;-78
2022/04/04 03:44:47;;;;;;;16.67;11.65;;;4.30;99.90;;;;;;5000720;28;20042;-78
2022/04/04 03:47:25;;;;;;;15.85;11.25;;;4.30;99.90;;;;;;4989135;28;20378;-77
2022/04/04 03:49:59;;;;;;;14.82;11.95;;;4.30;99.90;;;;;;4981616;28;20045;-78
2022/04/04 03:52:27;;;;;;;16.30;11.70;;;4.20;99.90;;;;;;4982168;28;20484;-78
2022/04/04 03:54:58;;;;;;;15.52;11.60;;;4.30;99.90;;;;;;4990066;28;20124;-78
2022/04/04 03:57:34;;;;;;;18.45;11.80;;;4.30;99.90;;;;;;4988601;28;20049;-78
2022/04/04 04:00:09;;;;;;;16.50;11.60;;;4.30;99.90;;;;;;4981267;28;20667;-78
2022/04/04 04:02:44;;;;;;;16.55;11.48;;;4.40;99.90;;;;;;4986766;28;20037;-78
2022/04/04 04:05:30;;;;;;;14.40;11.05;;;4.40;99.90;;;;;;4987847;28;20042;-78
2022/04/04 04:07:56;;;;;;;15.25;12.07;;;4.40;99.90;;;;;;4980331;28;20037;-78
2022/04/04 04:10:28;;;;;;;15.55;11.75;;;4.50;99.90;;;;;;4985830;28;20427;-78
2022/04/04 04:12:58;;;;;;;14.73;11.55;;;4.40;99.90;;;;;;5000639;28;20392;-77
2022/04/04 04:15:31;;;;;;;17.98;12.48;;;4.40;99.90;;;;;;5000787;28;20063;-78
2022/04/04 04:18:20;;;;;;;17.25;11.93;;;4.40;99.90;;;;;;4982694;28;20038;-77
2022/04/04 04:20:50;;;;;;;16.58;12.90;;;4.50;99.90;;;;;;4980855;28;20045;-78
2022/04/04 04:23:36;;;;;;;16.38;12.25;;;4.50;99.90;;;;;;4980722;28;20038;-77
2022/04/04 04:26:23;;;;;;;18.42;12.23;;;4.50;99.90;;;;;;4980891;28;20041;-78
2022/04/04 04:29:05;;;;;;;17.48;12.88;;;4.60;99.90;;;;;;4998776;28;20042;-78
2022/04/04 04:32:15;;;;;;;18.90;12.80;;;4.50;99.90;;;;;;4992260;28;20441;-78
2022/04/04 04:35:07;;;;;;;15.73;12.57;;;4.60;99.90;;;;;;5000279;28;20276;-77
2022/04/04 04:37:36;;;;;;;16.23;13.00;;;4.50;99.90;;;;;;5016359;28;20041;-78
2022/04/04 04:40:21;;;;;;;20.08;14.10;;;4.50;99.90;;;;;;4999573;28;20049;-78
2022/04/04 04:43:12;;;;;;;;;;;;;;;;;;;;;
2022/04/04 04:45:59;;;;;;;18.02;14.82;;;4.40;99.90;;;;;;4997770;28;20352;-78
2022/04/04 04:49:05;;;;;;;18.95;14.90;;;4.40;99.90;;;;;;4980380;28;20061;-78
2022/04/04 04:52:29;;;;;;;18.67;13.75;;;4.40;99.90;;;;;;4980621;28;20077;-78
2022/04/04 04:55:38;;;;;;;18.45;14.35;;;4.30;99.90;;;;;;4950232;28;20123;-78
2022/04/04 04:58:39;;;;;;;20.15;14.18;;;4.30;99.90;;;;;;5015068;28;20093;-78
2022/04/04 05:01:31;;;;;;;20.33;14.27;;;4.40;99.90;;;;;;4980623;28;20050;-78
2022/04/04 05:04:11;;;;;;;17.25;14.68;;;4.40;99.90;;;;;;4980036;28;20040;-78
2022/04/04 05:06:49;;;;;;;18.88;14.40;;;4.40;99.90;;;;;;4980089;28;20107;-77
2022/04/04 05:09:32;;;;;;;16.45;12.88;;;4.40;99.90;;;;;;4984174;28;20431;-78
2022/04/04 05:12:25;;;;;;;19.10;13.32;;;4.50;99.90;;;;;;4985061;28;20092;-78
2022/04/04 05:15:04;;;;;;;17.13;13.63;;;4.50;99.90;;;;;;5001024;28;20057;-77
2022/04/04 05:18:08;;;;;;;;;;;;;;;;;;;;;
2022/04/04 05:27:37;;;;;;;13.02;11.63;;;4.70;99.90;;;;;;5211891;22;20066;-77
2022/04/04 05:30:26;;;;;;;15.05;11.60;;;4.80;99.90;;;;;;4959592;28;20046;-76
2022/04/04 05:33:15;;;;;;;15.85;12.20;;;4.80;99.90;;;;;;4947593;28;20047;-78
2022/04/04 05:36:05;;;;;;;;;;;;;;;;;;;;;
2022/04/04 05:38:50;;;;;;;17.02;11.80;;;4.90;99.90;;;;;;4965928;28;20043;-78
2022/04/04 05:41:52;;;;;;;15.50;10.85;;;4.90;99.90;;;;;;4923942;29;20043;-78
2022/04/04 05:44:47;;;;;;;14.10;11.40;;;4.90;99.90;;;;;;4922458;29;20053;-78
2022/04/04 05:50:23;;;;;;;15.80;11.77;;;4.90;99.90;;;;;;4951230;28;20078;-78
2022/04/04 05:53:03;;;;;;;15.05;10.82;;;4.90;99.90;;;;;;4938202;29;20047;-78
2022/04/04 05:55:42;;;;;;;12.73;10.73;;;5.00;99.90;;;;;;4929926;28;20517;-78
2022/04/04 06:01:40;;;;;;;15.10;11.07;;;5.00;99.90;;;;;;4949793;28;20069;-79
2022/04/04 06:04:23;;;;;;;13.23;10.63;;;5.00;99.90;;;;;;4942428;28;20045;-78
2022/04/04 06:07:18;;;;;;;15.55;11.07;;;5.00;99.90;;;;;;4921108;29;20458;-78
2022/04/04 06:10:02;;;;;;;13.88;10.57;;;5.00;99.90;;;;;;4952316;29;20039;-79
2022/04/04 06:12:53;;;;;;;14.23;10.57;;;5.20;99.90;;;;;;4921121;28;20054;-77
2022/04/04 06:15:55;;;;;;;15.95;11.18;;;5.10;99.90;;;;;;4958900;28;20110;-78
2022/04/04 06:19:28;;;;;;;;;;;;;;;;;;;;;
2022/04/04 06:26:30;;;;;;;14.65;10.95;;;5.00;99.90;;;;;;4858086;29;20054;-79
2022/04/04 06:29:09;;;;;;;13.52;10.18;;;4.90;99.90;;;;;;4824679;29;20052;-77
2022/04/04 06:31:38;;;;;;;12.82;10.77;;;4.90;99.90;;;;;;4931878;28;20525;-79
2022/04/04 06:34:05;;;;;;;13.85;10.95;;;4.80;99.90;;;;;;4940029;28;20042;-78
2022/04/04 06:36:38;;;;;;;15.05;11.30;;;4.70;99.90;;;;;;4954780;28;20417;-78
2022/04/04 06:39:18;;;;;;;18.02;10.98;;;4.70;99.90;;;;;;4938549;28;20085;-78
2022/04/04 06:41:47;;;;;;;14.63;11.70;;;4.70;99.90;;;;;;4938233;28;20134;-78
2022/04/04 06:44:20;;;;;;;16.67;11.57;;;4.70;99.90;;;;;;4937597;28;20089;-78
2022/04/04 06:47:04;;;;;;;14.88;11.68;;;4.60;99.90;;;;;;4942419;28;20497;-78
2022/04/04 06:49:40;;;;;;;15.85;12.60;;;4.60;99.90;;;;;;4944692;28;20118;-78
2022/04/04 06:52:19;;;;;;;18.73;11.88;;;4.60;99.90;;;;;;4941366;28;20042;-78
2022/04/04 06:55:01;;;;;;;16.98;11.82;;;4.60;99.90;;;;;;4940973;28;20043;-78
2022/04/04 06:57:33;;;;;;;15.50;13.02;;;4.50;99.90;;;;;;4940746;28;20039;-78
2022/04/04 07:00:45;;;;;;;;;;;;;;;;;;;;;
2022/04/04 07:03:40;;;;;;;17.63;13.65;;;4.50;99.90;;;;;;4966757;28;20058;-78
2022/04/04 07:06:07;;;;;;;15.60;12.80;;;4.50;99.90;;;;;;4938680;28;20090;-78
2022/04/04 07:09:25;;;;;;;16.38;14.13;;;4.40;99.90;;;;;;4957049;28;20039;-78
2022/04/04 07:11:54;;;;;;;20.38;14.13;;;4.60;99.90;;;;;;4939679;28;20055;-78
2022/04/04 07:14:29;;;;;;;19.58;14.57;;;4.50;99.90;;;;;;4945437;28;20081;-78
2022/04/04 07:17:04;;;;;;;16.27;13.93;;;4.50;99.90;;;;;;4959491;28;20373;-78
2022/04/04 07:19:35;;;;;;;19.50;14.93;;;4.50;99.90;;;;;;4943419;28;20066;-78
2022/04/04 07:22:03;;;;;;;19.65;15.57;;;4.50;99.90;;;;;;4943996;28;20050;-78
2022/04/04 07:25:00;;;;;;;21.85;16.30;;;4.50;99.90;;;;;;4960408;28;20038;-78
2022/04/04 07:27:35;;;;;;;26.63;17.50;;;4.50;99.90;;;;;;4958980;28;20090;-77
2022/04/04 07:30:23;;;;;;;20.80;16.15;;;4.50;99.90;;;;;;4944279;28;20508;-78
2022/04/04 07:32:54;;;;;;;23.05;17.45;;;4.50;99.90;;;;;;4939367;28;20046;-78
2022/04/04 07:35:28;;;;;;;22.42;18.38;;;4.60;99.90;;;;;;4960503;28;20043;-77
2022/04/04 07:38:10;;;;;;;21.35;17.13;;;4.60;99.90;;;;;;4945874;28;20042;-77
2022/04/04 07:40:47;;;;;;;22.17;17.67;;;4.70;99.90;;;;;;4965427;28;20041;-77
2022/04/04 07:43:35;;;;;;;;;;;;;;;;;;;;;
2022/04/04 07:46:22;;;;;;;24.50;18.70;;;4.70;99.90;;;;;;4959471;28;20536;-78
2022/04/04 07:49:22;;;;;;;23.35;18.58;;;4.70;99.90;;;;;;4944194;28;20035;-78
2022/04/04 07:52:12;;;;;;;21.35;18.52;;;4.80;99.90;;;;;;4944694;28;20042;-78
2022/04/04 07:54:38;;;;;;;22.38;18.75;;;4.80;99.90;;;;;;4943816;28;20053;-78
2022/04/04 07:57:10;;;;;;;21.60;18.55;;;4.80;99.90;;;;;;4943038;28;20046;-78
2022/04/04 08:04:39;;;;;;;23.25;18.55;;;4.90;99.90;;;;;;4959130;28;20089;-79
2022/04/04 08:10:34;;;;;;;20.33;16.98;;;4.90;99.90;;;;;;4881318;29;20097;-78
2022/04/04 08:13:06;;;;;;;19.95;17.83;;;4.90;99.90;;;;;;4864478;28;20171;-78
2022/04/04 08:16:02;;;;;;;23.00;17.98;;;5.00;99.90;;;;;;4942536;28;20497;-78
2022/04/04 08:22:15;;;;;;;22.27;17.30;;;5.00;99.90;;;;;;4883162;28;20108;-78
2022/04/04 08:25:14;;;;;;;20.17;17.95;;;5.00;99.90;;;;;;4974610;28;20111;-79
2022/04/04 08:28:02;;;;;;;20.13;17.30;;;5.10;99.90;;;;;;4958877;28;20038;-80
2022/04/04 08:30:56;;;;;;;;;;;;;;;;;;;;;
2022/04/04 08:40:54;;;;;;;;;;;;;;;;;;;;;
2022/04/04 08:47:32;;;;;;;17.50;14.88;;;5.10;99.90;;;;;;4948734;28;20047;-79
2022/04/04 08:50:14;;;;;;;20.23;15.50;;;5.20;99.90;;;;;;4940838;28;20133;-79
2022/04/04 08:53:31;;;;;;;19.98;15.68;;;5.10;99.90;;;;;;4957018;28;20117;-79
2022/04/04 09:00:40;;;;;;;;;;;;;;;;;;;;;
2022/04/04 09:03:40;;;;;;;14.15;10.65;;;5.20;99.90;;;;;;4892647;29;20044;-79
2022/04/04 09:07:21;;;;;;;12.57;8.70;;;5.20;99.90;;;;;;4882267;29;20041;-80
2022/04/04 09:10:44;;;;;;;12.20;10.10;;;5.20;99.90;;;;;;4819225;29;20060;-78
2022/04/04 09:18:25;;;;;;;12.32;9.02;;;5.30;99.90;;;;;;4929647;28;20050;-77
2022/04/04 09:21:33;;;;;;;11.25;9.05;;;5.30;99.90;;;;;;4953158;28;20153;-78
2022/04/04 09:32:19;;;;;;;10.55;7.28;;;5.10;99.90;;;;;;4823867;28;20144;-81
2022/04/04 09:35:18;;;;;;;10.85;7.72;;;5.20;99.90;;;;;;4968579;28;20092;-81
2022/04/04 09:49:06;;;;;;;7.50;6.53;;;5.20;99.90;;;;;;4887011;29;20048;-79
2022/04/04 09:52:26;;;;;;;8.52;6.63;;;5.30;99.90;;;;;;4938709;28;20077;-80
2022/04/04 09:55:34;;;;;;;9.70;6.32;;;5.30;99.90;;;;;;4925519;29;20146;-80
2022/04/04 10:06:27;;;;;;;7.90;6.10;;;5.30;99.90;;;;;;4906269;29;20119;-80
2022/04/04 10:17:42;;;;;;;8.95;6.40;;;5.50;99.90;;;;;;4836528;29;20093;-78
2022/04/04 10:24:03;;;;;;;9.35;6.85;;;5.50;99.90;;;;;;4952940;29;20057;-78
2022/04/04 10:27:46;;;;;;;;;;;;;;;;;;;;;
2022/04/04 10:30:59;;;;;;;10.68;6.90;;;5.50;99.90;;;;;;4936920;28;20547;-80
2022/04/04 10:34:07;;;;;;;;;;;;;;;;;;;;;
2022/04/04 10:36:56;;;;;;;8.65;6.97;;;5.60;99.90;;;;;;4994686;28;20038;-80
2022/04/04 10:39:48;;;;;;;8.85;6.53;;;5.60;99.90;;;;;;4884758;29;20095;-80
2022/04/04 10:43:05;;;;;;;8.15;7.32;;;5.70;99.90;;;;;;4893266;29;20491;-80
2022/04/04 10:46:05;;;;;;;9.95;7.18;;;5.80;99.90;;;;;;4976747;28;20516;-80
2022/04/04 10:49:33;;;;;;;8.38;6.50;;;5.80;99.90;;;;;;4976794;28;20042;-80
2022/04/04 10:52:30;;;;;;;9.32;7.22;;;6.00;99.90;;;;;;4978422;28;20096;-81
2022/04/04 11:00:03;;;;;;;9.98;6.35;;;6.10;99.90;;;;;;4933887;29;20127;-80
2022/04/04 11:03:20;;;;;;;8.38;6.18;;;6.10;99.90;;;;;;4846607;29;20564;-80
2022/04/04 11:10:32;;;;;;;;;;;;;;;;;;;;;
2022/04/04 11:13:40;;;;;;;8.07;6.25;;;6.20;99.90;;;;;;4872248;29;20141;-80
2022/04/04 11:17:03;;;;;;;9.23;5.78;;;6.20;99.90;;;;;;4902558;29;20039;-81
2022/04/04 11:20:00;;;;;;;;;;;;;;;;;;;;;
2022/04/04 11:23:22;;;;;;;6.63;5.57;;;6.30;99.90;;;;;;4994480;28;20042;-80
2022/04/04 11:26:36;;;;;;;8.98;5.55;;;6.40;99.90;;;;;;4864048;29;20163;-81
2022/04/04 11:36:55;;;;;;;6.45;4.70;;;6.50;99.90;;;;;;4885494;29;20535;-80
2022/04/04 11:39:56;;;;;;;7.85;5.90;;;6.50;99.90;;;;;;4904527;29;20103;-81
2022/04/04 11:43:13;;;;;;;8.85;5.43;;;6.50;99.90;;;;;;4917143;29;20036;-80
2022/04/04 11:46:11;;;;;;;6.90;5.07;;;6.60;99.90;;;;;;4975529;28;20113;-80
2022/04/04 11:49:16;;;;;;;6.80;4.63;;;6.60;99.90;;;;;;4939779;29;20058;-81
2022/04/04 11:52:39;;;;;;;;;;;;;;;;;;;;;
2022/04/04 11:56:10;;;;;;;6.90;5.05;;;6.60;99.90;;;;;;4877493;29;20516;-81
2022/04/04 12:00:06;;;;;;;5.15;4.45;;;6.60;99.90;;;;;;4865300;29;20049;-81
2022/04/04 12:07:33;;;;;;;5.35;4.85;;;6.70;99.90;;;;;;4845546;29;20049;-82
2022/04/04 12:10:42;;;;;;;6.88;5.55;;;6.80;99.90;;;;;;4882673;29;20248;-81
2022/04/04 12:21:05;;;;;;;6.65;4.43;;;6.90;99.90;;;;;;4892816;29;20070;-81
2022/04/04 12:35:12;;;;;;;;;;;;;;;;;;;;;
2022/04/04 12:38:44;;;;;;;4.78;3.28;;;6.90;99.90;;;;;;4919613;29;20585;-82
2022/04/04 12:41:55;;;;;;;4.05;3.28;;;7.00;99.90;;;;;;4906832;28;20072;-81
2022/04/04 12:45:15;;;;;;;4.20;3.65;;;7.00;99.90;;;;;;4923415;29;20082;-79
2022/04/04 12:48:21;;;;;;;4.38;3.58;;;7.00;99.90;;;;;;4904176;29;20058;-79
2022/04/04 12:51:52;;;;;;;4.30;3.78;;;7.00;99.90;;;;;;4903427;29;20056;-80
2022/04/04 12:54:46;;;;;;;3.72;3.42;;;7.10;99.90;;;;;;4976820;28;20185;-79
2022/04/04 12:57:36;;;;;;;4.20;2.90;;;7.10;99.90;;;;;;4981843;28;20098;-79
2022/04/04 13:08:00;;;;;;;3.33;3.03;;;7.30;99.90;;;;;;4936836;29;20454;-79
2022/04/04 13:11:24;;;;;;;3.67;3.25;;;7.30;99.90;;;;;;4936346;29;20131;-80
2022/04/04 13:14:45;;;;;;;3.75;2.92;;;7.30;99.90;;;;;;4975158;28;20051;-79
2022/04/04 13:18:41;;;;;;;3.75;2.72;;;7.40;99.90;;;;;;4961140;28;20045;-79
2022/04/04 13:21:20;;;;;;;3.10;2.47;;;7.40;99.90;;;;;;4973396;28;20515;-80
2022/04/04 13:24:33;;;;;;;3.13;2.83;;;7.50;99.90;;;;;;4978901;28;20049;-80
2022/04/04 13:30:52;;;;;;;3.75;2.65;;;7.50;99.90;;;;;;4957964;28;20134;-80
2022/04/04 13:33:30;;;;;;;3.28;2.80;;;7.50;99.90;;;;;;4978325;28;20053;-79
2022/04/04 13:36:43;;;;;;;3.22;2.83;;;7.60;99.90;;;;;;4981240;28;20042;-80
2022/04/04 13:39:46;;;;;;;2.38;2.17;;;7.50;99.90;;;;;;4992289;28;20053;-80
2022/04/04 13:42:53;;;;;;;2.33;2.10;;;7.70;99.90;;;;;;4979260;28;20046;-80
2022/04/04 13:46:18;;;;;;;2.97;2.47;;;7.70;99.90;;;;;;4962332;28;20050;-80
2022/04/04 13:51:57;;;;;;;4.25;2.42;;;7.70;99.90;;;;;;4914217;29;20052;-80
2022/04/04 13:54:55;;;;;;;2.88;2.58;;;7.70;99.90;;;;;;4903269;29;20056;-80
2022/04/04 13:57:22;;;;;;;3.63;2.95;;;7.80;99.90;;;;;;4916126;29;20052;-80
2022/04/04 14:00:39;;;;;;;3.22;2.63;;;7.80;99.90;;;;;;4916459;29;20040;-80
2022/04/04 14:03:31;;;;;;;5.35;3.25;;;7.90;99.90;;;;;;4939992;28;20313;-81
2022/04/04 14:06:18;;;;;;;3.55;2.85;;;8.00;99.90;;;;;;4978176;28;20046;-81
2022/04/04 14:09:24;;;;;;;3.35;2.83;;;8.00;99.90;;;;;;4976292;28;20110;-80
2022/04/04 14:19:59;;;;;;;4.47;3.83;;;8.20;99.90;;;;;;5020957;22;20467;-81
2022/04/04 14:26:49;;;;;;;7.70;4.85;;;8.30;99.90;;;;;;4927621;28;20140;-81
2022/04/04 14:30:13;;;;;;;6.40;5.65;;;8.30;99.90;;;;;;4981099;28;20047;-80
2022/04/04 14:33:56;;;;;;;7.32;6.40;;;8.30;99.90;;;;;;4984805;28;20038;-79
2022/04/04 14:40:18;;;;;;;8.95;6.70;;;8.40;99.90;;;;;;4931404;28;20482;-79
2022/04/04 14:46:38;;;;;;;9.38;7.22;;;8.40;99.90;;;;;;4984876;28;20046;-79
2022/04/04 14:49:32;;;;;;;12.68;8.30;;;8.40;99.90;;;;;;4988340;28;20417;-80
2022/04/04 14:52:22;;;;;;;;;;;;;;;;;;;;;
2022/04/04 14:58:25;;;;;;;;;;;8.50;99.90;;;;;;4990184;28;20061;-79
2022/04/04 15:01:06;;;;;;;13.35;9.40;;;8.50;99.90;;;;;;4978956;28;19926;-80
2022/04/04 15:03:33;;;;;;;14.48;9.30;;;8.50;99.90;;;;;;4990932;28;20054;-80
2022/04/04 15:06:22;;;;;;;15.07;9.45;;;8.50;99.90;;;;;;4968330;28;20141;-80
2022/04/04 15:09:05;;;;;;;15.13;10.27;;;8.50;99.90;;;;;;4966458;28;20038;-79
2022/04/04 15:11:38;;;;;;;12.85;8.65;;;8.60;99.90;;;;;;4954608;28;20114;-79
2022/04/04 15:14:18;;;;;;;13.35;8.20;;;8.50;99.90;;;;;;4966668;28;20070;-79
2022/04/04 15:17:12;;;;;;;12.27;8.10;;;8.60;99.90;;;;;;4981542;28;20077;-80
2022/04/04 15:19:41;;;;;;;12.48;7.95;;;8.60;99.90;;;;;;4966514;28;20042;-79
2022/04/04 15:22:09;;;;;;;14.45;7.82;;;8.60;99.90;;;;;;4964998;28;20134;-79
2022/04/04 15:24:47;;;;;;;13.35;8.50;;;8.60;99.90;;;;;;4964261;28;20069;-79
2022/04/04 15:27:29;;;;;;;12.80;7.85;;;8.70;99.90;;;;;;4966224;28;20095;-79
2022/04/04 15:30:11;;;;;;;;;;;;;;;;;;;;;
2022/04/04 15:33:00;;;;;;;14.13;7.93;;;8.70;99.90;;;;;;4981816;28;20046;-78
2022/04/04 15:35:36;;;;;;;13.00;8.23;;;8.70;99.90;;;;;;4967459;28;20109;-79
2022/04/04 15:38:26;;;;;;;14.80;7.97;;;8.70;99.90;;;;;;4984183;28;20045;-79
2022/04/04 15:41:17;;;;;;;13.00;7.50;;;8.70;99.90;;;;;;4984077;28;20053;-79
2022/04/04 15:43:51;;;;;;;13.07;7.07;;;8.80;99.90;;;;;;4995398;28;20050;-78
2022/04/04 15:46:34;;;;;;;12.52;6.82;;;8.80;99.90;;;;;;4983234;28;20044;-78
2022/04/04 15:49:08;;;;;;;14.85;7.13;;;8.80;99.90;;;;;;4967566;28;20054;-76
2022/04/04 15:52:49;;;;;;;12.23;6.43;;;8.90;99.90;;;;;;5005210;28;20056;-81
2022/04/04 15:55:39;;;;;;;;;;;;;;;;;;;;;
2022/04/04 15:58:49;;;;;;;12.38;4.93;;;8.90;99.90;;;;;;4979940;28;20290;-78
2022/04/04 16:01:33;;;;;;;;;;;8.80;99.90;;;;;;4996418;28;20595;-79
2022/04/04 16:04:34;;;;;;;5.72;3.85;;;8.80;99.90;;;;;;4969409;28;20423;-80
2022/04/04 16:07:27;;;;;;;6.18;3.80;;;8.80;99.90;;;;;;4977529;28;20113;-78
2022/04/04 16:10:16;;;;;;;9.00;4.05;;;8.80;99.90;;;;;;4963934;28;20035;-80
2022/04/04 16:12:49;;;;;;;10.00;4.40;;;8.70;99.90;;;;;;4942982;28;20104;-77
2022/04/04 16:15:24;;;;;;;8.60;4.10;;;8.80;99.90;;;;;;4960809;28;20513;-79
2022/04/04 16:18:10;;;;;;;6.15;3.80;;;8.80;99.90;;;;;;4960471;28;20038;-81
2022/04/04 16:20:42;;;;;;;8.52;4.47;;;8.80;99.90;;;;;;4958825;28;20046;-80
2022/04/04 16:23:11;;;;;;;12.15;4.53;;;8.80;99.90;;;;;;4961710;28;20088;-79
2022/04/04 16:25:38;;;;;;;12.52;4.85;;;8.80;99.90;;;;;;4953728;28;20489;-77
2022/04/04 16:28:07;;;;;;;8.57;4.57;;;8.90;99.90;;;;;;4976642;28;20042;-78
2022/04/04 16:30:34;;;;;;;11.00;4.60;;;8.90;99.90;;;;;;4954772;28;20049;-77
2022/04/04 16:33:10;;;;;;;9.75;4.10;;;8.90;99.90;;;;;;4954950;28;20046;-78
2022/04/04 16:35:51;;;;;;;8.63;4.18;;;8.90;99.90;;;;;;4973449;28;20054;-79
2022/04/04 16:38:20;;;;;;;13.00;5.13;;;9.00;99.90;;;;;;4955455;28;20038;-78
2022/04/04 16:40:49;;;;;;;12.07;5.38;;;8.90;99.90;;;;;;4975467;28;20082;-78
2022/04/04 16:43:20;;;;;;;12.77;6.65;;;8.90;99.90;;;;;;4975565;28;20041;-78
2022/04/04 16:45:46;;;;;;;14.20;7.53;;;9.00;99.90;;;;;;4959693;28;20042;-78
2022/04/04 16:48:24;;;;;;;12.95;6.70;;;9.00;99.90;;;;;;4960103;28;20218;-79
2022/04/04 16:50:55;;;;;;;14.18;7.03;;;9.00;99.90;;;;;;4951144;28;20470;-79
2022/04/04 16:53:26;;;;;;;17.92;7.25;;;9.00;99.90;;;;;;4941672;28;20129;-79
2022/04/04 16:55:55;;;;;;;25.77;8.68;;;9.00;99.90;;;;;;4959318;28;20050;-79
2022/04/04 16:58:28;;;;;;;17.90;7.88;;;9.00;99.90;;;;;;4960791;28;20038;-79
2022/04/04 17:00:59;;;;;;;18.55;8.27;;;8.90;99.90;;;;;;4960870;28;20139;-78
2022/04/04 17:03:31;;;;;;;20.83;7.97;;;9.00;99.90;;;;;;4958906;28;20078;-79
2022/04/04 17:06:03;;;;;;;18.27;8.18;;;9.00;99.90;;;;;;4958745;28;20038;-79
2022/04/04 17:08:29;;;;;;;19.50;7.28;;;9.00;99.90;;;;;;4975360;28;20441;-79
2022/04/04 17:11:03;;;;;;;16.23;8.10;;;9.00;99.90;;;;;;4958374;28;20061;-79
2022/04/04 17:13:33;;;;;;;22.85;7.88;;;9.00;99.90;;;;;;4966531;28;20038;-78
2022/04/04 17:16:01;;;;;;;19.50;8.27;;;9.00;99.90;;;;;;4957504;28;20037;-78
2022/04/04 17:18:30;;;;;;;22.80;7.57;;;8.90;99.90;;;;;;4953164;28;20467;-79
2022/04/04 17:20:56;;;;;;;19.33;7.63;;;8.90;99.90;;;;;;4955837;28;20516;-79
2022/04/04 17:23:24;;;;;;;18.02;7.82;;;8.90;99.90;;;;;;4940387;28;20045;-78
2022/04/04 17:25:53;;;;;;;17.73;7.32;;;9.00;99.90;;;;;;4942756;28;20527;-78
2022/04/04 17:28:23;;;;;;;16.45;6.88;;;8.90;99.90;;;;;;4974111;28;20457;-78
2022/04/04 17:30:55;;;;;;;17.98;7.32;;;8.90;99.90;;;;;;4959249;28;20141;-78
2022/04/04 17:33:24;;;;;;;20.30;7.32;;;8.90;99.90;;;;;;4958708;28;20050;-78